HR-Groep



Recente activiteiten




spacer
U bent hier:  >  Assortiment HR Groep  >  Verkeersveiligheid  >  Wegbebakening tijdelijk  >  Werk in Uitvoering borden  >  L07
L07

L07







Art.code Artikelomschrijving
Afmeting
Uitvoering
010206797 010206797 WIU model L07-2-01t 600x700mm Klasse II
010206817 010206817 WIU model L07-2-01t 600x700mm DG3 Fluor
010206840 010206840 WIU model L07-2-01t 600x900mm Klasse II
010206861 010206861 WIU model L07-2-01t 600x900mm DG3 Fluor
010206944 010206944 WIU model L07-2-01t 900x1300mm Klasse II
010206961 010206961 WIU model L07-2-01t 900x1300mm DG3 Fluor
010206998 010206998 WIU model L07-2-01t 900x1600mm Klasse II
010207015 010207015 WIU model L07-2-01t 900x1600mm DG3 Fluor
010206783 010206783 WIU model L07-2-01t 1350x1950mm Klasse II
010206782 010206782 WIU model L07-2-01t 1350x1950mm DG3 Fluor
010207090 010207090 WIU model L07-2-01t 1350x2350mm Klasse II
010207091 010207091 WIU model L07-2-01t 1350x2350mm DG3 Fluor
010206798 010206798 WIU model L07-3-01t 600x700mm Klasse II
010206818 010206818 WIU model L07-3-01t 600x700mm DG3 Fluor
010206841 010206841 WIU model L07-3-01t 600x900mm Klasse II
010206862 010206862 WIU model L07-3-01t 600x900mm DG3 Fluor
010206945 010206945 WIU model L07-3-01t 900x1300mm Klasse II
010206962 010206962 WIU model L07-3-01t 900x1300mm DG3 Fluor
010206999 010206999 WIU model L07-3-01t 900x1600mm Klasse II
010207016 010207016 WIU model L07-3-01t 900x1600mm DG3 Fluor
010206785 010206785 WIU model L07-3-01t 1350x1950mm Klasse II
010206786 010206786 WIU model L07-3-01t 1350x1950mm DG3 Fluor
010207092 010207092 WIU model L07-3-01t 1350x2350mm Klasse II
010207111 010207111 WIU model L07-3-01t 1350x2350mm DG3 Fluor
010207250 010207250 WIU model L07-4-01t 2000x1950mm Klasse II
010207261 010207261 WIU model L07-4-01t 2000x1950mm DG3 Fluor